createdAt,value
2018-04-07T00:00:31.733Z,57
2018-04-07T00:01:32.439Z,57
2018-04-07T00:02:33.145Z,57
2018-04-07T00:03:33.853Z,57
2018-04-07T00:04:34.560Z,57
2018-04-07T00:05:35.278Z,57
2018-04-07T00:06:35.985Z,57
2018-04-07T00:07:36.693Z,57
2018-04-07T00:08:37.401Z,57
2018-04-07T00:09:38.108Z,57
2018-04-07T00:10:38.821Z,57
2018-04-07T00:11:39.533Z,57
2018-04-07T00:12:40.240Z,57
2018-04-07T00:13:40.948Z,57
2018-04-07T00:14:41.654Z,57
2018-04-07T00:15:42.362Z,57
2018-04-07T00:16:43.070Z,57
2018-04-07T00:17:43.786Z,57
2018-04-07T00:18:44.494Z,56
2018-04-07T00:19:45.200Z,57
2018-04-07T00:20:45.906Z,57
2018-04-07T00:21:46.616Z,57
2018-04-07T00:22:47.333Z,57
2018-04-07T00:23:48.039Z,57
2018-04-07T00:24:48.757Z,57
2018-04-07T00:25:49.464Z,57
2018-04-07T00:26:50.171Z,57
2018-04-07T00:27:50.878Z,57
2018-04-07T00:28:51.587Z,57
2018-04-07T00:29:52.300Z,57
2018-04-07T00:30:53.008Z,57
2018-04-07T00:31:53.714Z,57
2018-04-07T00:32:54.421Z,57
2018-04-07T00:33:55.126Z,57
2018-04-07T00:34:55.832Z,57
2018-04-07T00:35:56.542Z,57
2018-04-07T00:36:57.250Z,57
2018-04-07T00:37:57.958Z,57
2018-04-07T00:38:58.668Z,57
2018-04-07T00:39:59.374Z,57
2018-04-07T00:41:00.082Z,57
2018-04-07T00:42:00.791Z,57
2018-04-07T00:43:01.498Z,57
2018-04-07T00:44:02.209Z,57
2018-04-07T00:45:02.928Z,57
2018-04-07T00:46:03.644Z,57
2018-04-07T00:47:04.362Z,57
2018-04-07T00:48:05.068Z,57
2018-04-07T00:49:05.787Z,57
2018-04-07T00:50:06.491Z,57
2018-04-07T00:51:07.198Z,56
2018-04-07T00:52:07.904Z,57
2018-04-07T00:53:08.612Z,57
2018-04-07T00:54:09.319Z,58
2018-04-07T00:55:10.024Z,57
2018-04-07T00:56:10.731Z,57
2018-04-07T00:57:11.439Z,57
2018-04-07T00:58:12.147Z,57
2018-04-07T00:59:12.855Z,58
2018-04-07T01:00:13.564Z,58
2018-04-07T01:01:14.272Z,57
2018-04-07T01:02:14.990Z,58
2018-04-07T01:03:15.706Z,58
2018-04-07T01:04:16.412Z,57
2018-04-07T01:05:17.118Z,58
2018-04-07T01:06:17.825Z,58
2018-04-07T01:07:18.533Z,58
2018-04-07T01:08:19.252Z,58
2018-04-07T01:09:19.967Z,57
2018-04-07T01:10:20.675Z,57
2018-04-07T01:11:21.387Z,58
2018-04-07T01:12:22.099Z,58
2018-04-07T01:13:22.806Z,58
2018-04-07T01:14:23.512Z,58
2018-04-07T01:15:24.218Z,58
2018-04-07T01:16:24.929Z,58
2018-04-07T01:17:25.631Z,58
2018-04-07T01:18:26.336Z,58
2018-04-07T01:19:27.053Z,58
2018-04-07T01:20:27.759Z,59
2018-04-07T01:21:28.465Z,58
2018-04-07T01:22:29.188Z,59
2018-04-07T01:23:29.901Z,58
2018-04-07T01:24:30.606Z,58
2018-04-07T01:25:31.312Z,59
2018-04-07T01:26:32.018Z,59
2018-04-07T01:27:32.725Z,59
2018-04-07T01:28:33.432Z,59
2018-04-07T01:29:34.143Z,59
2018-04-07T01:30:34.848Z,59
2018-04-07T01:32:51.140Z,59
2018-04-07T01:33:51.846Z,59
2018-04-07T01:34:52.555Z,59
2018-04-07T01:35:53.274Z,59
2018-04-07T01:36:53.980Z,59
2018-04-07T01:37:54.689Z,59
2018-04-07T01:38:55.404Z,59
2018-04-07T01:39:56.112Z,59
2018-04-07T01:40:56.820Z,59
2018-04-07T01:41:57.525Z,59
2018-04-07T01:42:58.546Z,59
2018-04-07T01:43:59.254Z,59
2018-04-07T01:44:59.961Z,59
2018-04-07T01:46:00.666Z,59
2018-04-07T01:47:01.378Z,59
2018-04-07T01:48:02.351Z,59
2018-04-07T01:49:03.057Z,59
2018-04-07T01:50:03.764Z,59
2018-04-07T01:51:04.484Z,59
2018-04-07T01:52:05.192Z,59
2018-04-07T01:53:05.913Z,59
2018-04-07T01:54:06.622Z,59
2018-04-07T01:55:07.340Z,59
2018-04-07T01:56:08.047Z,59
2018-04-07T01:57:08.755Z,59
2018-04-07T01:58:09.464Z,60
2018-04-07T01:59:10.172Z,60
2018-04-07T02:00:10.891Z,60
2018-04-07T02:01:11.600Z,60
2018-04-07T02:02:12.308Z,60
2018-04-07T02:03:13.028Z,59
2018-04-07T02:04:13.733Z,60
2018-04-07T02:05:14.440Z,60
2018-04-07T02:06:15.148Z,60
2018-04-07T02:07:15.872Z,60
2018-04-07T02:08:16.578Z,60
2018-04-07T02:09:17.300Z,60
2018-04-07T02:10:18.006Z,60
2018-04-07T02:11:18.712Z,60
2018-04-07T02:12:19.434Z,60
2018-04-07T02:13:20.137Z,60
2018-04-07T02:14:20.843Z,60
2018-04-07T02:15:21.551Z,60
2018-04-07T02:16:22.257Z,60
2018-04-07T02:17:22.968Z,60
2018-04-07T02:18:23.675Z,60
2018-04-07T02:19:24.402Z,60
2018-04-07T02:20:25.112Z,60
2018-04-07T02:21:25.820Z,60
2018-04-07T02:22:26.528Z,60
2018-04-07T02:23:27.236Z,60
2018-04-07T02:24:27.940Z,60
2018-04-07T02:25:28.646Z,60
2018-04-07T02:26:29.353Z,60
2018-04-07T02:27:30.060Z,60
2018-04-07T02:28:30.767Z,60
2018-04-07T02:29:31.474Z,60
2018-04-07T02:30:32.184Z,60
2018-04-07T02:31:32.902Z,60
2018-04-07T02:32:33.609Z,60
2018-04-07T02:33:34.315Z,60
2018-04-07T02:34:35.023Z,60
2018-04-07T02:35:35.730Z,60
2018-04-07T02:36:36.437Z,61
2018-04-07T02:37:37.145Z,60
2018-04-07T02:38:37.864Z,61
2018-04-07T02:39:38.575Z,60
2018-04-07T02:40:39.288Z,60
2018-04-07T02:41:40.006Z,61
2018-04-07T02:42:40.724Z,60
2018-04-07T02:43:41.431Z,61
2018-04-07T02:44:42.151Z,60
2018-04-07T02:45:42.860Z,60
2018-04-07T02:46:43.569Z,61
2018-04-07T02:47:44.277Z,61
2018-04-07T02:48:44.989Z,61
2018-04-07T02:49:45.708Z,61
2018-04-07T02:50:46.411Z,61
2018-04-07T02:51:47.133Z,61
2018-04-07T02:52:47.838Z,60
2018-04-07T02:53:48.557Z,61
2018-04-07T02:54:49.263Z,61
2018-04-07T02:55:49.971Z,60
2018-04-07T02:56:50.713Z,60
2018-04-07T02:57:51.388Z,61
2018-04-07T02:58:52.092Z,60
2018-04-07T02:59:52.798Z,61
2018-04-07T03:00:53.505Z,61
2018-04-07T03:01:54.211Z,61
2018-04-07T03:02:54.918Z,61
2018-04-07T03:03:55.647Z,61
2018-04-07T03:04:56.354Z,61
2018-04-07T03:05:57.063Z,61
2018-04-07T03:06:57.769Z,61
2018-04-07T03:07:58.476Z,61
2018-04-07T03:08:59.195Z,61
2018-04-07T03:09:59.900Z,61
2018-04-07T03:11:00.606Z,61
2018-04-07T03:12:01.328Z,61
2018-04-07T03:13:02.036Z,61
2018-04-07T03:14:02.755Z,62
2018-04-07T03:15:03.464Z,61
2018-04-07T03:16:04.173Z,61
2018-04-07T03:17:04.881Z,61
2018-04-07T03:18:05.602Z,61
2018-04-07T03:19:06.308Z,61
2018-04-07T03:20:07.015Z,61
2018-04-07T03:21:07.723Z,62
2018-04-07T03:22:08.432Z,62
2018-04-07T03:23:09.139Z,62
2018-04-07T03:24:09.858Z,62
2018-04-07T03:25:10.563Z,62
2018-04-07T03:26:11.270Z,61
2018-04-07T03:27:11.987Z,62
2018-04-07T03:28:12.691Z,62
2018-04-07T03:29:13.411Z,62
2018-04-07T03:30:14.120Z,62
2018-04-07T03:31:14.827Z,62
2018-04-07T03:32:15.532Z,62
2018-04-07T03:33:16.238Z,62
2018-04-07T03:34:16.947Z,62
2018-04-07T03:35:17.650Z,62
2018-04-07T03:36:18.368Z,63
2018-04-07T03:37:19.076Z,62
2018-04-07T03:38:19.779Z,63
2018-04-07T03:39:20.498Z,63
2018-04-07T03:40:21.207Z,63
2018-04-07T03:41:21.911Z,62
2018-04-07T03:42:22.619Z,62
2018-04-07T03:43:23.326Z,62
2018-04-07T03:44:24.035Z,62
2018-04-07T03:45:24.749Z,63
2018-04-07T03:46:25.458Z,63
2018-04-07T03:47:26.176Z,63
2018-04-07T03:48:26.884Z,63
2018-04-07T03:49:27.591Z,63
2018-04-07T03:50:28.331Z,63
2018-04-07T03:51:29.018Z,63
2018-04-07T03:52:29.741Z,63
2018-04-07T03:53:30.447Z,63
2018-04-07T03:54:31.156Z,63
2018-04-07T03:55:31.863Z,63
2018-04-07T03:56:32.582Z,63
2018-04-07T03:57:33.303Z,63
2018-04-07T03:58:34.011Z,63
2018-04-07T03:59:34.717Z,63
2018-04-07T04:00:35.435Z,63
2018-04-07T04:01:36.141Z,63
2018-04-07T04:02:36.848Z,63
2018-04-07T04:03:37.555Z,63
2018-04-07T04:04:38.263Z,63
2018-04-07T04:05:38.969Z,64
2018-04-07T04:06:39.676Z,64
2018-04-07T04:07:40.382Z,64
2018-04-07T04:08:41.089Z,64
2018-04-07T04:09:41.794Z,64
2018-04-07T04:10:42.501Z,64
2018-04-07T04:11:43.209Z,64
2018-04-07T04:12:43.928Z,64
2018-04-07T04:13:44.633Z,64
2018-04-07T04:14:45.340Z,64
2018-04-07T04:15:46.046Z,64
2018-04-07T04:16:46.752Z,64
2018-04-07T04:17:47.461Z,64
2018-04-07T04:18:48.169Z,64
2018-04-07T04:19:48.875Z,65
2018-04-07T04:20:49.583Z,65
2018-04-07T04:21:50.302Z,65
2018-04-07T04:22:51.022Z,65
2018-04-07T04:23:51.728Z,65
2018-04-07T04:24:52.436Z,65
2018-04-07T04:25:53.142Z,65
2018-04-07T04:26:53.850Z,65
2018-04-07T04:27:54.569Z,65
2018-04-07T04:28:55.279Z,65
2018-04-07T04:29:55.983Z,65
2018-04-07T04:30:56.701Z,65
2018-04-07T04:31:57.413Z,66
2018-04-07T04:32:58.120Z,66
2018-04-07T04:33:58.841Z,66
2018-04-07T04:34:59.564Z,66
2018-04-07T04:36:00.268Z,66
2018-04-07T04:37:00.980Z,66
2018-04-07T04:38:01.698Z,66
2018-04-07T04:39:02.407Z,66
2018-04-07T04:40:03.111Z,66
2018-04-07T04:41:03.820Z,66
2018-04-07T04:42:04.527Z,66
2018-04-07T04:43:05.235Z,66
2018-04-07T04:44:05.953Z,67
2018-04-07T04:45:06.662Z,66
2018-04-07T04:46:07.373Z,66
2018-04-07T04:47:08.079Z,66
2018-04-07T04:48:08.788Z,66
2018-04-07T04:49:09.497Z,67
2018-04-07T04:50:10.206Z,66
2018-04-07T04:51:10.928Z,66
2018-04-07T04:52:11.652Z,67
2018-04-07T04:53:12.365Z,66
2018-04-07T04:54:13.071Z,67
2018-04-07T04:55:13.790Z,66
2018-04-07T04:56:14.502Z,66
2018-04-07T04:57:15.213Z,66
2018-04-07T04:58:15.923Z,66
2018-04-07T04:59:16.635Z,67
2018-04-07T05:00:17.358Z,66
2018-04-07T05:01:18.079Z,67
2018-04-07T05:02:18.789Z,66
2018-04-07T05:03:19.513Z,66
2018-04-07T05:04:20.224Z,66
2018-04-07T05:05:20.947Z,66
2018-04-07T05:06:21.667Z,66
2018-04-07T05:07:22.383Z,66
2018-04-07T05:08:23.092Z,66
2018-04-07T05:10:39.031Z,66
2018-04-07T05:11:39.740Z,67
2018-04-07T05:12:40.451Z,66
2018-04-07T05:13:41.163Z,67
2018-04-07T05:14:41.874Z,67
2018-04-07T05:15:42.597Z,67
2018-04-07T05:16:43.318Z,66
2018-04-07T05:17:44.027Z,66
2018-04-07T05:18:44.740Z,66
2018-04-07T05:19:45.450Z,67
2018-04-07T05:20:46.160Z,66
2018-04-07T05:21:46.886Z,66
2018-04-07T05:22:47.596Z,67
2018-04-07T05:23:48.319Z,66
2018-04-07T05:24:49.032Z,66
2018-04-07T05:25:49.743Z,66
2018-04-07T05:26:50.468Z,66
2018-04-07T05:27:51.180Z,66
2018-04-07T05:28:51.905Z,66
2018-04-07T05:29:52.618Z,66
2018-04-07T05:30:53.345Z,66
2018-04-07T05:31:54.056Z,66
2018-04-07T05:32:54.768Z,66
2018-04-07T05:33:55.493Z,66
2018-04-07T05:34:56.205Z,66
2018-04-07T05:35:56.916Z,66
2018-04-07T05:36:57.645Z,66
2018-04-07T05:37:58.356Z,66
2018-04-07T05:38:59.068Z,66
2018-04-07T05:39:59.781Z,66
2018-04-07T05:41:00.494Z,65
2018-04-07T05:42:01.207Z,66
2018-04-07T05:43:01.919Z,66
2018-04-07T05:44:02.643Z,66
2018-04-07T05:45:03.358Z,65
2018-04-07T05:46:04.084Z,65
2018-04-07T05:47:04.797Z,65
2018-04-07T05:48:05.510Z,65
2018-04-07T05:49:06.221Z,65
2018-04-07T05:50:06.991Z,65
2018-04-07T05:51:07.665Z,64
2018-04-07T05:52:08.386Z,64
2018-04-07T05:53:09.105Z,64
2018-04-07T05:54:09.817Z,64
2018-04-07T05:55:10.529Z,64
2018-04-07T05:56:11.240Z,64
2018-04-07T05:57:11.951Z,64
2018-04-07T05:58:12.677Z,63
2018-04-07T05:59:13.387Z,63
2018-04-07T06:00:14.099Z,63
2018-04-07T06:01:14.814Z,63
2018-04-07T06:02:15.528Z,63
2018-04-07T06:03:16.242Z,63
2018-04-07T06:04:16.955Z,63
2018-04-07T06:05:17.685Z,63
2018-04-07T06:06:18.412Z,63
2018-04-07T06:07:19.126Z,62
2018-04-07T06:08:19.841Z,63
2018-04-07T06:09:20.556Z,62
2018-04-07T06:10:21.287Z,62
2018-04-07T06:11:22.011Z,61
2018-04-07T06:12:22.724Z,62
2018-04-07T06:13:23.439Z,62
2018-04-07T06:14:24.166Z,61
2018-04-07T06:15:24.882Z,61
2018-04-07T06:16:25.595Z,61
2018-04-07T06:17:26.320Z,61
2018-04-07T06:18:27.036Z,61
2018-04-07T06:19:27.757Z,60
2018-04-07T06:20:28.514Z,60
2018-04-07T06:21:29.196Z,60
2018-04-07T06:22:29.927Z,60
2018-04-07T06:23:30.636Z,60
2018-04-07T06:24:31.366Z,59
2018-04-07T06:25:32.096Z,59
2018-04-07T06:26:32.810Z,59
2018-04-07T06:27:33.541Z,59
2018-04-07T06:28:34.267Z,59
2018-04-07T06:29:34.996Z,58
2018-04-07T06:30:35.725Z,58
2018-04-07T06:31:36.443Z,58
2018-04-07T06:32:37.162Z,58
2018-04-07T06:33:37.896Z,57
2018-04-07T06:34:38.614Z,57
2018-04-07T06:35:39.332Z,57
2018-04-07T06:36:40.050Z,57
2018-04-07T06:37:40.767Z,57
2018-04-07T06:38:41.484Z,57
2018-04-07T06:39:42.204Z,56
2018-04-07T06:40:42.924Z,56
2018-04-07T06:41:43.648Z,56
2018-04-07T06:42:44.363Z,56
2018-04-07T06:43:45.094Z,56
2018-04-07T06:44:45.813Z,56
2018-04-07T06:45:46.532Z,55
2018-04-07T06:46:47.256Z,55
2018-04-07T06:47:47.971Z,54
2018-04-07T06:48:48.690Z,54
2018-04-07T06:49:49.409Z,54
2018-04-07T06:50:50.128Z,54
2018-04-07T06:51:50.847Z,54
2018-04-07T06:52:51.566Z,54
2018-04-07T06:53:52.286Z,53
2018-04-07T06:54:53.007Z,52
2018-04-07T06:55:53.726Z,52
2018-04-07T06:56:54.447Z,52
2018-04-07T06:57:55.179Z,52
2018-04-07T06:58:55.912Z,52
2018-04-07T06:59:56.631Z,52
2018-04-07T07:00:57.368Z,52
2018-04-07T07:01:58.087Z,52
2018-04-07T07:02:58.808Z,51
2018-04-07T07:03:59.527Z,52
2018-04-07T07:05:00.248Z,52
2018-04-07T07:06:00.967Z,52
2018-04-07T07:07:01.690Z,51
2018-04-07T07:08:02.405Z,51
2018-04-07T07:09:03.124Z,51
2018-04-07T07:10:03.844Z,50
2018-04-07T07:11:04.570Z,50
2018-04-07T07:12:05.288Z,50
2018-04-07T07:13:06.008Z,51
2018-04-07T07:14:06.730Z,51
2018-04-07T07:15:07.452Z,51
2018-04-07T07:16:08.174Z,51
2018-04-07T07:17:08.895Z,51
2018-04-07T07:18:09.631Z,50
2018-04-07T07:19:10.364Z,50
2018-04-07T07:20:11.083Z,50
2018-04-07T07:21:11.805Z,51
2018-04-07T07:22:12.530Z,51
2018-04-07T07:23:13.253Z,52
2018-04-07T07:24:14.010Z,52
2018-04-07T07:25:14.700Z,52
2018-04-07T07:26:15.422Z,52
2018-04-07T07:27:16.145Z,51
2018-04-07T07:28:16.868Z,51
2018-04-07T07:29:17.592Z,51
2018-04-07T07:30:18.317Z,51
2018-04-07T07:31:19.049Z,51
2018-04-07T07:32:19.775Z,51
2018-04-07T07:33:20.506Z,50
2018-04-07T07:34:21.228Z,51
2018-04-07T07:35:21.950Z,51
2018-04-07T07:36:22.674Z,51
2018-04-07T07:37:23.398Z,51
2018-04-07T07:38:24.130Z,50
2018-04-07T07:39:24.856Z,50
2018-04-07T07:40:25.586Z,50
2018-04-07T07:41:26.311Z,50
2018-04-07T07:42:27.047Z,49
2018-04-07T07:43:27.772Z,48
2018-04-07T07:44:28.494Z,48
2018-04-07T07:45:29.233Z,48
2018-04-07T07:46:29.960Z,49
2018-04-07T07:47:30.685Z,49
2018-04-07T07:48:31.412Z,49
2018-04-07T07:49:32.137Z,49
2018-04-07T07:50:32.861Z,50
2018-04-07T07:51:33.590Z,50
2018-04-07T07:52:34.313Z,50
2018-04-07T07:53:35.036Z,51
2018-04-07T07:54:35.761Z,51
2018-04-07T07:55:36.487Z,50
2018-04-07T07:56:37.212Z,49
2018-04-07T07:57:37.953Z,49
2018-04-07T07:58:38.677Z,48
2018-04-07T07:59:39.403Z,48
2018-04-07T08:00:40.132Z,47
2018-04-07T08:01:40.868Z,47
2018-04-07T08:02:41.595Z,46
2018-04-07T08:03:42.320Z,46
2018-04-07T08:04:43.050Z,46
2018-04-07T08:05:43.778Z,46
2018-04-07T08:06:44.504Z,45
2018-04-07T08:07:45.246Z,45
2018-04-07T08:08:45.975Z,44
2018-04-07T08:09:46.705Z,44
2018-04-07T08:10:47.435Z,43
2018-04-07T08:11:48.169Z,43
2018-04-07T08:12:48.897Z,43
2018-04-07T08:13:49.641Z,42
2018-04-07T08:14:50.378Z,41
2018-04-07T08:15:51.112Z,42
2018-04-07T08:16:51.845Z,42
2018-04-07T08:17:52.581Z,42
2018-04-07T08:18:53.314Z,42
2018-04-07T08:19:54.050Z,43
2018-04-07T08:20:54.781Z,44
2018-04-07T08:21:55.521Z,43
2018-04-07T08:22:56.251Z,44
2018-04-07T08:23:56.993Z,43
2018-04-07T08:24:57.730Z,43
2018-04-07T08:25:58.463Z,43
2018-04-07T08:26:59.197Z,43
2018-04-07T08:27:59.935Z,42
2018-04-07T08:29:00.667Z,43
2018-04-07T08:30:01.418Z,43
2018-04-07T08:31:02.147Z,43
2018-04-07T08:32:02.888Z,44
2018-04-07T08:33:03.617Z,44
2018-04-07T08:34:04.352Z,44
2018-04-07T08:35:05.086Z,44
2018-04-07T08:36:05.833Z,43
2018-04-07T08:37:06.569Z,44
2018-04-07T08:38:07.304Z,43
2018-04-07T08:39:08.048Z,43
2018-04-07T08:40:08.781Z,42
2018-04-07T08:41:09.514Z,42
2018-04-07T08:42:10.244Z,41
2018-04-07T08:43:10.991Z,41
2018-04-07T08:44:11.741Z,41
2018-04-07T08:45:12.475Z,41
2018-04-07T08:46:13.206Z,41
2018-04-07T08:47:13.940Z,40
2018-04-07T08:48:14.686Z,40
2018-04-07T08:49:15.420Z,39
2018-04-07T08:50:16.151Z,39
2018-04-07T08:51:16.897Z,39
2018-04-07T08:52:17.633Z,39
2018-04-07T08:53:18.365Z,40
2018-04-07T08:54:19.098Z,40
2018-04-07T08:55:19.833Z,41
2018-04-07T08:56:20.582Z,40
2018-04-07T08:57:21.322Z,41
2018-04-07T08:58:22.049Z,39
2018-04-07T08:59:22.795Z,39
2018-04-07T09:00:23.528Z,40
2018-04-07T09:01:24.262Z,40
2018-04-07T09:02:24.998Z,39
2018-04-07T09:03:25.743Z,39
2018-04-07T09:04:26.481Z,39
2018-04-07T09:05:27.224Z,39
2018-04-07T09:06:27.956Z,38
2018-04-07T09:07:28.691Z,37
2018-04-07T09:08:29.424Z,36
2018-04-07T09:09:30.159Z,36
2018-04-07T09:10:30.894Z,36
2018-04-07T09:11:31.627Z,36
2018-04-07T09:12:32.361Z,35
2018-04-07T09:13:33.096Z,37
2018-04-07T09:14:33.829Z,37
2018-04-07T09:15:34.577Z,37
2018-04-07T09:16:35.312Z,37
2018-04-07T09:17:36.061Z,37
2018-04-07T09:18:36.796Z,36
2018-04-07T09:19:37.529Z,36
2018-04-07T09:20:38.266Z,36
2018-04-07T09:21:39.001Z,36
2018-04-07T09:22:39.736Z,35
2018-04-07T09:23:40.472Z,35
2018-04-07T09:24:41.207Z,36
2018-04-07T09:25:41.942Z,37
2018-04-07T09:26:42.678Z,37
2018-04-07T09:27:43.412Z,37
2018-04-07T09:28:44.148Z,37
2018-04-07T09:29:44.882Z,37
2018-04-07T09:30:45.617Z,37
2018-04-07T09:31:46.364Z,36
2018-04-07T09:32:47.100Z,36
2018-04-07T09:33:47.839Z,36
2018-04-07T09:34:48.570Z,36
2018-04-07T09:35:49.306Z,35
2018-04-07T09:36:50.041Z,36
2018-04-07T09:37:50.776Z,36
2018-04-07T09:38:51.510Z,36
2018-04-07T09:39:52.249Z,36
2018-04-07T09:40:52.982Z,35
2018-04-07T09:41:53.721Z,35
2018-04-07T09:42:54.450Z,35
2018-04-07T09:43:55.186Z,35
2018-04-07T09:44:55.921Z,34
2018-04-07T09:45:56.657Z,34
2018-04-07T09:46:57.392Z,33
2018-04-07T09:47:58.125Z,33
2018-04-07T09:48:58.862Z,33
2018-04-07T09:49:59.596Z,33
2018-04-07T09:51:00.344Z,33
2018-04-07T09:52:01.080Z,33
2018-04-07T09:53:01.829Z,33
2018-04-07T09:54:02.580Z,33
2018-04-07T09:55:03.316Z,33
2018-04-07T09:56:04.051Z,33
2018-04-07T09:57:04.799Z,34
2018-04-07T09:58:05.534Z,33
2018-04-07T09:59:06.270Z,33
2018-04-07T10:00:07.005Z,33
2018-04-07T10:01:07.740Z,32
2018-04-07T10:02:08.482Z,32
2018-04-07T10:03:09.211Z,32
2018-04-07T10:04:09.948Z,32
2018-04-07T10:05:10.685Z,32
2018-04-07T10:06:11.419Z,32
2018-04-07T10:07:12.155Z,31
2018-04-07T10:08:12.895Z,31
2018-04-07T10:09:13.627Z,31
2018-04-07T10:10:14.363Z,31
2018-04-07T10:11:15.101Z,31
2018-04-07T10:12:15.837Z,31
2018-04-07T10:13:16.572Z,31
2018-04-07T10:14:17.307Z,31
2018-04-07T10:15:18.044Z,32
2018-04-07T10:16:18.782Z,32
2018-04-07T10:17:19.533Z,32
2018-04-07T10:18:20.280Z,31
2018-04-07T10:19:21.015Z,31
2018-04-07T10:20:21.751Z,31
2018-04-07T10:21:22.505Z,31
2018-04-07T10:22:23.240Z,32
2018-04-07T10:23:23.973Z,32
2018-04-07T10:24:24.711Z,31
2018-04-07T10:25:25.446Z,31
2018-04-07T10:26:26.179Z,31
2018-04-07T10:27:26.920Z,31
2018-04-07T10:28:27.668Z,31
2018-04-07T10:29:28.403Z,31
2018-04-07T10:30:29.141Z,31
2018-04-07T10:31:29.877Z,31
2018-04-07T10:32:30.612Z,31
2018-04-07T10:33:31.350Z,30
2018-04-07T10:34:32.085Z,31
2018-04-07T10:35:32.820Z,31
2018-04-07T10:36:33.555Z,31
2018-04-07T10:37:34.296Z,29
2018-04-07T10:38:35.035Z,29
2018-04-07T10:39:35.775Z,29
2018-04-07T10:40:36.513Z,29
2018-04-07T10:41:37.258Z,29
2018-04-07T10:42:37.998Z,30
2018-04-07T10:43:38.739Z,29
2018-04-07T10:44:39.482Z,29
2018-04-07T10:45:40.236Z,29
2018-04-07T10:46:40.985Z,29
2018-04-07T10:47:41.730Z,28
2018-04-07T10:48:42.481Z,29
2018-04-07T10:49:43.229Z,28
2018-04-07T10:50:43.974Z,28
2018-04-07T10:51:44.723Z,27
2018-04-07T10:52:45.506Z,27
2018-04-07T10:53:46.223Z,27
2018-04-07T10:54:46.971Z,26
2018-04-07T10:55:47.718Z,26
2018-04-07T10:56:48.462Z,27
2018-04-07T10:57:49.206Z,26
2018-04-07T10:58:49.950Z,27
2018-04-07T10:59:50.721Z,27
2018-04-07T11:00:51.437Z,27
2018-04-07T11:01:52.181Z,26
2018-04-07T11:02:52.923Z,26
2018-04-07T11:03:53.664Z,26
2018-04-07T11:04:54.408Z,26
2018-04-07T11:05:55.151Z,25
2018-04-07T11:06:55.892Z,25
2018-04-07T11:07:56.635Z,26
2018-04-07T11:08:57.379Z,26
2018-04-07T11:09:58.123Z,26
2018-04-07T11:10:58.868Z,27
2018-04-07T11:11:59.608Z,28
2018-04-07T11:13:00.352Z,27
2018-04-07T11:14:01.096Z,28
2018-04-07T11:15:01.850Z,27
2018-04-07T11:16:02.593Z,27
2018-04-07T11:17:03.338Z,27
2018-04-07T11:18:04.080Z,27
2018-04-07T11:19:04.834Z,27
2018-04-07T11:20:05.587Z,28
2018-04-07T11:21:06.333Z,26
2018-04-07T11:22:07.077Z,26
2018-04-07T11:23:07.823Z,26
2018-04-07T11:24:08.578Z,26
2018-04-07T11:25:09.321Z,26
2018-04-07T11:26:10.066Z,27
2018-04-07T11:27:10.807Z,27
2018-04-07T11:28:11.550Z,26
2018-04-07T11:29:12.296Z,26
2018-04-07T11:30:13.040Z,26
2018-04-07T11:31:13.782Z,25
2018-04-07T11:32:14.527Z,24
2018-04-07T11:33:15.272Z,25
2018-04-07T11:34:16.015Z,25
2018-04-07T11:35:16.771Z,25
2018-04-07T11:36:17.514Z,25
2018-04-07T11:37:18.258Z,26
2018-04-07T11:38:19.000Z,26
2018-04-07T11:39:19.755Z,26
2018-04-07T11:40:20.510Z,26
2018-04-07T11:41:21.264Z,25
2018-04-07T11:42:22.013Z,25
2018-04-07T11:43:22.753Z,26
2018-04-07T11:44:23.493Z,26
2018-04-07T11:45:24.236Z,26
2018-04-07T11:46:24.987Z,27
2018-04-07T11:47:25.734Z,27
2018-04-07T11:48:26.493Z,26
2018-04-07T11:49:27.237Z,26
2018-04-07T11:50:27.981Z,26
2018-04-07T11:51:28.733Z,26
2018-04-07T11:52:29.479Z,27
2018-04-07T11:53:30.218Z,26
2018-04-07T11:54:30.960Z,26
2018-04-07T11:55:31.706Z,26
2018-04-07T11:56:32.449Z,25
2018-04-07T11:57:33.195Z,25
2018-04-07T11:58:33.937Z,25
2018-04-07T11:59:34.680Z,24
2018-04-07T12:00:35.421Z,24
2018-04-07T12:01:36.165Z,25
2018-04-07T12:02:36.924Z,24
2018-04-07T12:03:37.650Z,23
2018-04-07T12:04:38.391Z,23
2018-04-07T12:05:39.134Z,23
2018-04-07T12:06:39.879Z,23
2018-04-07T12:07:40.625Z,23
2018-04-07T12:08:41.364Z,23
2018-04-07T12:09:42.105Z,24
2018-04-07T12:10:42.845Z,24
2018-04-07T12:11:43.606Z,24
2018-04-07T12:12:44.330Z,25
2018-04-07T12:13:45.075Z,25
2018-04-07T12:14:45.833Z,25
2018-04-07T12:15:46.572Z,26
2018-04-07T12:16:47.319Z,26
2018-04-07T12:17:48.079Z,26
2018-04-07T12:18:48.840Z,25
2018-04-07T12:19:49.568Z,25
2018-04-07T12:20:50.315Z,25
2018-04-07T12:21:51.073Z,25
2018-04-07T12:22:51.819Z,25
2018-04-07T12:23:52.558Z,25
2018-04-07T12:24:53.302Z,25
2018-04-07T12:25:54.045Z,25
2018-04-07T12:26:54.788Z,24
2018-04-07T12:27:55.535Z,24
2018-04-07T12:28:56.280Z,25
2018-04-07T12:29:57.021Z,23
2018-04-07T12:30:57.762Z,23
2018-04-07T12:31:58.504Z,24
2018-04-07T12:32:59.259Z,22
2018-04-07T12:33:59.999Z,22
2018-04-07T12:35:00.752Z,22
2018-04-07T12:36:01.494Z,22
2018-04-07T12:37:02.247Z,21
2018-04-07T12:38:02.991Z,20
2018-04-07T12:39:03.746Z,20
2018-04-07T12:40:04.490Z,20
2018-04-07T12:41:05.231Z,21
2018-04-07T12:42:05.973Z,20
2018-04-07T12:43:06.728Z,20
2018-04-07T12:44:07.470Z,20
2018-04-07T12:45:08.209Z,20
2018-04-07T12:46:08.950Z,21
2018-04-07T12:47:09.698Z,21
2018-04-07T12:48:10.448Z,21
2018-04-07T12:49:11.203Z,21
2018-04-07T12:50:11.943Z,20
2018-04-07T12:51:12.713Z,21
2018-04-07T12:52:13.425Z,20
2018-04-07T12:53:14.166Z,20
2018-04-07T12:54:14.907Z,20
2018-04-07T12:55:15.662Z,19
2018-04-07T12:56:16.405Z,19
2018-04-07T12:57:17.149Z,20
2018-04-07T12:58:17.890Z,19
2018-04-07T12:59:18.646Z,19
2018-04-07T13:00:19.391Z,19
2018-04-07T13:01:20.131Z,19
2018-04-07T13:02:20.873Z,19
2018-04-07T13:03:21.616Z,19
2018-04-07T13:04:22.360Z,19
2018-04-07T13:05:23.112Z,19
2018-04-07T13:06:23.851Z,20
2018-04-07T13:07:24.592Z,20
2018-04-07T13:08:25.334Z,19
2018-04-07T13:09:26.072Z,19
2018-04-07T13:10:26.815Z,19
2018-04-07T13:11:27.557Z,19
2018-04-07T13:12:28.301Z,19
2018-04-07T13:13:29.043Z,19
2018-04-07T13:14:29.797Z,20
2018-04-07T13:15:30.536Z,20
2018-04-07T13:16:31.277Z,19
2018-04-07T13:17:32.019Z,19
2018-04-07T13:18:32.756Z,18
2018-04-07T13:19:33.498Z,17
2018-04-07T13:20:34.238Z,17
2018-04-07T13:21:34.992Z,18
2018-04-07T13:22:35.736Z,18
2018-04-07T13:23:36.476Z,19
2018-04-07T13:24:37.223Z,19
2018-04-07T13:25:37.967Z,20
2018-04-07T13:26:38.713Z,20
2018-04-07T13:27:39.451Z,19
2018-04-07T13:28:40.198Z,19
2018-04-07T13:29:40.936Z,20
2018-04-07T13:30:41.679Z,20
2018-04-07T13:31:42.434Z,20
2018-04-07T13:32:43.180Z,20
2018-04-07T13:33:43.917Z,20
2018-04-07T13:34:44.659Z,20
2018-04-07T13:35:45.404Z,19
2018-04-07T13:36:46.142Z,19
2018-04-07T13:37:46.888Z,19
2018-04-07T13:38:47.642Z,19
2018-04-07T13:39:48.386Z,18
2018-04-07T13:40:49.128Z,18
2018-04-07T13:41:49.884Z,18
2018-04-07T13:42:50.637Z,18
2018-04-07T13:43:51.378Z,18
2018-04-07T13:44:52.128Z,18
2018-04-07T13:45:52.862Z,19
2018-04-07T13:46:53.608Z,19
2018-04-07T13:47:54.353Z,19
2018-04-07T13:48:55.095Z,18
2018-04-07T13:49:55.853Z,17
2018-04-07T13:50:56.594Z,17
2018-04-07T13:51:57.351Z,17
2018-04-07T13:52:58.094Z,16
2018-04-07T13:53:58.838Z,16
2018-04-07T13:54:59.595Z,17
2018-04-07T13:56:00.344Z,17
2018-04-07T13:57:01.086Z,18
2018-04-07T13:58:01.820Z,18
2018-04-07T13:59:02.573Z,18
2018-04-07T14:00:03.325Z,18
2018-04-07T14:01:04.065Z,18
2018-04-07T14:02:04.815Z,17
2018-04-07T14:03:05.551Z,17
2018-04-07T14:04:06.288Z,17
2018-04-07T14:05:07.021Z,17
2018-04-07T14:06:07.757Z,17
2018-04-07T14:07:08.491Z,17
2018-04-07T14:08:09.227Z,17
2018-04-07T14:09:09.961Z,17
2018-04-07T14:10:10.694Z,17
2018-04-07T14:11:11.428Z,16
2018-04-07T14:12:12.162Z,16
2018-04-07T14:13:12.898Z,16
2018-04-07T14:14:13.632Z,16
2018-04-07T14:15:14.366Z,17
2018-04-07T14:16:15.099Z,17
2018-04-07T14:17:15.833Z,17
2018-04-07T14:18:16.582Z,17
2018-04-07T14:19:17.316Z,17
2018-04-07T14:20:18.049Z,16
2018-04-07T14:21:18.812Z,16
2018-04-07T14:22:19.518Z,16
2018-04-07T14:23:20.255Z,16
2018-04-07T14:24:20.985Z,16
2018-04-07T14:25:21.719Z,16
2018-04-07T14:26:22.451Z,16
2018-04-07T14:27:23.184Z,16
2018-04-07T14:28:23.919Z,16